Time;durP1;ratioP1;P1;durP2;ratioP2;P2;SDS_P1;SDS_P2;PMS_P1;PMS_P2;Temp;Humidity;BMP_temperature;BMP_pressure;BME280_temperature;BME280_humidity;BME280_pressure;Samples;Min_cycle;Max_cycle;Signal;HPM_P1;HPM_P2
2023/12/30 00:01:21;;;;;;;4.18;0.75;;;;;;;3.66;100.00;99254.75;5074308;28;20462;-68
2023/12/30 00:03:47;;;;;;;7.88;1.00;;;;;;;3.65;100.00;99253.09;5072968;28;20032;-67
2023/12/30 00:06:15;;;;;;;10.20;1.38;;;;;;;3.51;100.00;99230.06;5074121;28;20036;-67
2023/12/30 00:08:40;;;;;;;3.28;0.80;;;;;;;3.55;100.00;99246.47;5073868;28;20372;-66
2023/12/30 00:11:06;;;;;;;5.43;0.80;;;;;;;3.12;100.00;99194.16;5055886;28;20035;-67
2023/12/30 00:13:31;;;;;;;5.40;0.90;;;;;;;3.59;100.00;99259.19;5055838;28;20624;-67
2023/12/30 00:15:57;;;;;;;5.78;0.73;;;;;;;3.58;100.00;99265.53;5073538;28;20060;-66
2023/12/30 00:18:22;;;;;;;8.00;0.93;;;;;;;3.58;100.00;99270.03;5056036;28;20032;-67
2023/12/30 00:20:48;;;;;;;8.45;1.10;;;;;;;3.57;100.00;99271.03;5056066;28;20064;-67
2023/12/30 00:23:13;;;;;;;4.50;0.90;;;;;;;3.55;100.00;99265.91;5073098;28;20036;-67
2023/12/30 00:25:39;;;;;;;4.30;0.90;;;;;;;3.57;100.00;99271.84;5072745;28;20434;-67
2023/12/30 00:28:05;;;;;;;4.75;0.70;;;;;;;3.56;100.00;99272.88;5072877;28;20448;-67
2023/12/30 00:30:30;;;;;;;10.13;1.40;;;;;;;3.57;100.00;99274.50;5055211;28;20042;-67
2023/12/30 00:32:55;;;;;;;3.30;0.73;;;;;;;3.60;100.00;99278.63;5072969;28;20495;-67
2023/12/30 00:35:22;;;;;;;8.00;1.10;;;;;;;3.62;100.00;99271.28;5072903;28;20028;-67
2023/12/30 00:37:47;;;;;;;3.90;0.80;;;;;;;3.61;100.00;99277.59;5072753;28;20032;-67
2023/12/30 00:40:14;;;;;;;6.53;0.80;;;;;;;3.61;100.00;99274.94;5072914;28;20036;-67
2023/12/30 00:42:39;;;;;;;5.75;0.98;;;;;;;3.58;100.00;99286.81;5071324;28;20057;-67
2023/12/30 00:45:05;;;;;;;4.43;0.70;;;;;;;3.53;100.00;99278.56;5054835;28;20094;-67
2023/12/30 00:47:31;;;;;;;6.82;0.77;;;;;;;3.40;100.00;99265.97;5071506;28;20032;-66
2023/12/30 00:49:56;;;;;;;5.18;0.90;;;;;;;3.52;100.00;99293.69;5072367;28;20039;-66
2023/12/30 00:52:22;;;;;;;4.10;0.90;;;;;;;3.54;100.00;99296.16;5072541;28;20028;-67
2023/12/30 00:54:47;;;;;;;7.22;0.93;;;;;;;3.56;100.00;99299.47;5072799;28;20600;-67
2023/12/30 00:57:13;;;;;;;6.47;0.95;;;;;;;3.61;100.00;99304.19;5055106;28;20495;-67
2023/12/30 00:59:39;;;;;;;9.00;1.02;;;;;;;3.61;100.00;99310.34;5038516;28;20024;-70
2023/12/30 01:02:04;;;;;;;5.43;0.80;;;;;;;3.61;100.00;99305.03;5073525;28;20069;-66
2023/12/30 01:04:29;;;;;;;4.85;1.05;;;;;;;3.62;100.00;99322.63;5055059;28;20064;-66
2023/12/30 01:06:55;;;;;;;2.78;0.65;;;;;;;3.60;100.00;99314.00;5054846;28;20032;-66
2023/12/30 01:09:20;;;;;;;5.82;0.70;;;;;;;3.43;100.00;99286.03;5065465;28;20036;-68
2023/12/30 01:11:46;;;;;;;9.10;1.70;;;;;;;3.57;100.00;99322.38;5074477;28;20218;-66
2023/12/30 01:14:11;;;;;;;3.17;0.80;;;;;;;3.56;100.00;99311.94;5075440;28;20032;-71
2023/12/30 01:16:36;;;;;;;3.67;0.90;;;;;;;3.44;100.00;99287.69;5041651;28;20064;-67
2023/12/30 01:19:02;;;;;;;7.18;0.88;;;;;;;3.54;100.00;99306.78;5075309;28;20024;-66
2023/12/30 01:21:28;;;;;;;7.95;1.00;;;;;;;3.65;100.00;99321.44;5076247;28;20114;-66
2023/12/30 01:23:53;;;;;;;7.68;1.42;;;;;;;3.67;100.00;99324.72;5057529;28;20033;-66
2023/12/30 01:26:19;;;;;;;5.68;1.17;;;;;;;3.69;100.00;99328.84;5075989;28;20028;-67
2023/12/30 01:28:44;;;;;;;6.72;1.00;;;;;;;3.68;100.00;99329.03;5075982;28;20028;-66
2023/12/30 01:31:10;;;;;;;4.03;0.90;;;;;;;3.65;100.00;99327.56;5075459;28;20042;-66
2023/12/30 01:33:35;;;;;;;4.60;0.55;;;;;;;3.46;100.00;99313.06;5076055;28;20597;-66
2023/12/30 01:36:01;;;;;;;3.35;0.50;;;;;;;3.52;100.00;99343.41;5074779;28;20039;-67
2023/12/30 01:38:26;;;;;;;2.58;0.40;;;;;;;3.49;100.00;99338.47;5074884;28;20028;-67
2023/12/30 01:40:53;;;;;;;4.65;0.50;;;;;;;3.35;100.00;99332.19;5057478;28;20494;-67
2023/12/30 01:43:28;;;;;;;5.22;0.68;;;;;;;3.47;100.00;99351.13;5075374;28;20438;-66
2023/12/30 01:45:58;;;;;;;6.82;0.70;;;;;;;3.48;100.00;99363.41;5057738;28;20432;-67
2023/12/30 01:48:23;;;;;;;3.38;0.50;;;;;;;3.49;100.00;99367.72;5059626;28;20025;-66
2023/12/30 01:50:51;;;;;;;5.90;0.90;;;;;;;3.53;100.00;99363.66;5073410;28;20024;-66
2023/12/30 01:53:19;;;;;;;8.30;1.20;;;;;;;3.51;100.00;99368.38;5053753;28;20056;-67
2023/12/30 01:55:49;;;;;;;6.03;1.05;;;;;;;3.41;100.00;99357.19;5037272;28;20028;-67
2023/12/30 01:58:14;;;;;;;4.97;0.70;;;;;;;3.33;100.00;99354.66;5064604;28;20028;-66
2023/12/30 02:00:42;;;;;;;14.65;1.17;;;;;;;3.16;100.00;99354.88;5070827;28;20020;-66
2023/12/30 02:03:07;;;;;;;7.75;1.00;;;;;;;3.16;100.00;99370.00;5070761;28;20057;-66
2023/12/30 02:05:34;;;;;;;7.13;1.10;;;;;;;3.08;100.00;99370.09;5071505;28;20119;-67
2023/12/30 02:07:59;;;;;;;8.57;1.20;;;;;;;3.06;100.00;99364.97;5069877;28;20036;-69
2023/12/30 02:10:25;;;;;;;8.15;0.85;;;;;;;3.08;100.00;99365.63;5071715;28;20030;-66
2023/12/30 02:12:50;;;;;;;9.98;1.00;;;;;;;2.90;100.00;99349.25;5070179;28;20063;-66
2023/12/30 02:15:17;;;;;;;13.35;1.50;;;;;;;3.06;100.00;99378.28;5070260;28;20046;-67
2023/12/30 02:17:43;;;;;;;8.68;1.23;;;;;;;3.11;100.00;99383.84;5070218;28;20501;-67
2023/12/30 02:20:09;;;;;;;8.95;1.02;;;;;;;3.05;100.00;99366.81;5070429;28;20441;-66
2023/12/30 02:22:35;;;;;;;11.48;1.05;;;;;;;2.97;100.00;99342.16;5070221;28;20020;-66
2023/12/30 02:25:02;;;;;;;9.50;0.90;;;;;;;3.14;100.00;99369.34;5071404;28;20051;-66
2023/12/30 02:27:27;;;;;;;8.15;0.98;;;;;;;3.12;100.00;99368.75;5053497;28;20475;-66
2023/12/30 02:29:53;;;;;;;15.82;1.48;;;;;;;3.10;100.00;99373.41;5071523;28;20025;-67
2023/12/30 02:32:18;;;;;;;8.93;0.95;;;;;;;3.07;100.00;99377.25;5053085;28;20074;-67
2023/12/30 02:34:44;;;;;;;6.28;0.70;;;;;;;3.04;100.00;99372.31;5071012;28;20062;-66
2023/12/30 02:37:10;;;;;;;7.10;0.90;;;;;;;3.03;100.00;99378.63;5036532;28;20501;-67
2023/12/30 02:39:35;;;;;;;7.22;0.93;;;;;;;2.96;100.00;99375.06;5052970;28;20040;-67
2023/12/30 02:42:01;;;;;;;8.93;1.08;;;;;;;2.91;100.00;99374.78;5052640;28;20041;-66
2023/12/30 02:44:26;;;;;;;7.50;0.88;;;;;;;2.87;100.00;99381.50;5071064;28;20040;-67
2023/12/30 02:46:51;;;;;;;7.47;0.80;;;;;;;2.69;100.00;99357.97;5069518;28;20032;-67
2023/12/30 02:49:19;;;;;;;8.98;0.80;;;;;;;2.79;100.00;99382.41;5071276;28;20058;-67
2023/12/30 02:51:45;;;;;;;2.67;0.50;;;;;;;2.70;100.00;99386.16;5070797;28;20103;-67
2023/12/30 02:54:10;;;;;;;6.63;0.75;;;;;;;2.44;100.00;99360.88;5070443;28;20100;-67
2023/12/30 02:56:36;;;;;;;6.75;0.70;;;;;;;2.52;100.00;99387.34;5070731;28;20029;-67
2023/12/30 02:59:02;;;;;;;6.63;0.80;;;;;;;2.55;100.00;99402.94;5052469;28;20032;-67
2023/12/30 03:01:32;;;;;;;7.10;0.70;;;;;;;2.34;100.00;99371.75;5050671;28;20082;-67
2023/12/30 03:03:59;;;;;;;6.57;0.63;;;;;;;2.51;100.00;99396.31;5050095;28;20772;-67
2023/12/30 03:06:26;;;;;;;5.68;1.23;;;;;;;2.46;100.00;99403.19;5050245;28;20029;-67
2023/12/30 03:08:52;;;;;;;5.80;0.63;;;;;;;2.16;100.00;99360.66;5057963;28;20047;-67
2023/12/30 03:11:20;;;;;;;4.03;0.50;;;;;;;2.44;100.00;99407.84;5069635;28;20491;-67
2023/12/30 03:13:46;;;;;;;5.03;0.40;;;;;;;2.28;100.00;99391.06;5070479;28;20423;-67
2023/12/30 03:16:13;;;;;;;4.70;0.40;;;;;;;2.37;100.00;99409.56;5069392;28;20078;-67
2023/12/30 03:18:39;;;;;;;3.50;0.55;;;;;;;2.38;100.00;99409.38;5066102;28;20070;-67
2023/12/30 03:21:07;;;;;;;1.33;0.30;;;;;;;2.43;100.00;99403.53;5052617;28;20024;-66
2023/12/30 03:23:33;;;;;;;4.72;0.50;;;;;;;2.46;100.00;99409.31;5070289;28;20037;-67
2023/12/30 03:25:59;;;;;;;5.28;0.50;;;;;;;2.53;100.00;99420.03;5035418;28;20040;-66
2023/12/30 03:28:25;;;;;;;4.47;0.50;;;;;;;2.56;100.00;99422.34;5069971;28;20437;-67
2023/12/30 03:30:51;;;;;;;4.53;0.60;;;;;;;2.59;100.00;99424.63;5052625;28;20060;-67
2023/12/30 03:33:16;;;;;;;3.72;0.43;;;;;;;2.63;100.00;99425.91;5070688;28;20117;-66
2023/12/30 03:35:43;;;;;;;3.00;0.60;;;;;;;2.64;100.00;99427.53;5070415;28;20037;-67
2023/12/30 03:38:08;;;;;;;5.25;0.60;;;;;;;2.65;100.00;99437.19;5051641;28;20039;-67
2023/12/30 03:40:34;;;;;;;5.15;0.50;;;;;;;2.56;100.00;99425.00;5070309;28;20386;-67
2023/12/30 03:43:00;;;;;;;4.55;0.63;;;;;;;2.68;100.00;99426.19;5052259;28;20040;-67
2023/12/30 03:45:25;;;;;;;6.07;1.00;;;;;;;2.74;100.00;99435.25;5035747;28;20045;-67
2023/12/30 03:47:52;;;;;;;8.80;0.93;;;;;;;2.79;100.00;99431.06;5070374;28;20071;-65
2023/12/30 03:50:17;;;;;;;10.05;0.93;;;;;;;2.82;100.00;99437.84;5068750;28;20064;-66
2023/12/30 03:52:43;;;;;;;5.03;0.90;;;;;;;2.89;100.00;99445.91;5070235;28;20056;-65
2023/12/30 03:55:08;;;;;;;6.72;0.90;;;;;;;2.90;100.00;99443.03;5069911;28;20067;-66
2023/12/30 03:57:33;;;;;;;8.23;1.08;;;;;;;2.91;100.00;99442.03;5070088;28;20039;-67
2023/12/30 03:59:59;;;;;;;10.35;1.08;;;;;;;2.86;100.00;99439.13;5072085;28;20451;-66
2023/12/30 04:02:24;;;;;;;5.70;0.90;;;;;;;2.87;100.00;99445.25;5073719;28;20032;-67
2023/12/30 04:04:49;;;;;;;4.95;0.80;;;;;;;2.88;100.00;99441.56;5073352;28;20446;-67
2023/12/30 04:07:15;;;;;;;8.35;0.82;;;;;;;2.88;100.00;99453.06;5073402;28;20093;-67
2023/12/30 04:09:40;;;;;;;6.28;0.90;;;;;;;2.88;100.00;99449.53;5056142;28;20037;-67
2023/12/30 04:12:06;;;;;;;8.05;1.00;;;;;;;2.86;100.00;99451.56;5074077;28;20028;-66
2023/12/30 04:14:31;;;;;;;7.72;0.73;;;;;;;2.85;100.00;99464.03;5073586;28;20024;-67
2023/12/30 04:16:57;;;;;;;6.40;0.88;;;;;;;2.82;100.00;99451.13;5073376;28;20032;-67
2023/12/30 04:19:24;;;;;;;7.63;0.90;;;;;;;2.89;100.00;99465.31;5065611;28;20021;-66
2023/12/30 04:21:49;;;;;;;12.48;1.20;;;;;;;2.92;100.00;99458.81;5072624;28;20051;-66
2023/12/30 04:24:15;;;;;;;8.85;0.88;;;;;;;2.92;100.00;99457.00;5072585;28;20037;-66
2023/12/30 04:26:41;;;;;;;6.63;0.90;;;;;;;2.86;100.00;99460.38;5073735;28;20043;-67
2023/12/30 04:29:06;;;;;;;4.50;0.60;;;;;;;2.90;100.00;99461.66;5073031;28;20036;-66
2023/12/30 04:31:32;;;;;;;5.72;1.00;;;;;;;2.88;100.00;99468.13;5062821;28;20033;-66
2023/12/30 04:33:57;;;;;;;3.67;0.70;;;;;;;2.82;100.00;99465.22;5072669;28;20417;-67
2023/12/30 04:36:23;;;;;;;5.00;0.90;;;;;;;2.85;100.00;99472.00;5038295;28;20506;-66
2023/12/30 04:38:48;;;;;;;4.15;0.90;;;;;;;2.87;100.00;99472.63;5072424;28;20391;-66
2023/12/30 04:41:14;;;;;;;3.28;0.65;;;;;;;2.87;100.00;99477.13;5069479;28;20029;-67
2023/12/30 04:43:39;;;;;;;5.90;0.77;;;;;;;2.88;100.00;99476.97;5073017;28;20036;-67
2023/12/30 04:46:04;;;;;;;4.80;0.70;;;;;;;2.87;100.00;99477.13;5072756;28;20456;-66
2023/12/30 04:48:30;;;;;;;6.93;0.95;;;;;;;2.64;100.00;99450.63;5071536;28;20028;-67
2023/12/30 04:50:56;;;;;;;11.38;1.20;;;;;;;2.86;100.00;99489.59;5072070;28;20096;-67
2023/12/30 04:53:21;;;;;;;4.43;0.90;;;;;;;2.87;100.00;99493.06;5054738;28;20108;-67
2023/12/30 04:55:47;;;;;;;6.63;0.80;;;;;;;2.86;100.00;99486.94;5072067;28;20484;-66
2023/12/30 04:58:12;;;;;;;3.65;0.75;;;;;;;2.86;100.00;99488.78;5072010;28;20470;-66
2023/12/30 05:00:38;;;;;;;3.72;0.93;;;;;;;2.86;100.00;99496.75;5072328;28;20025;-68
2023/12/30 05:03:03;;;;;;;3.53;0.93;;;;;;;2.68;100.00;99463.38;5054105;28;20514;-67
2023/12/30 05:05:29;;;;;;;4.35;0.80;;;;;;;2.88;100.00;99489.41;5072688;28;20501;-67
2023/12/30 05:07:54;;;;;;;4.03;0.93;;;;;;;2.90;100.00;99498.03;5069118;28;20036;-68
2023/12/30 05:10:20;;;;;;;8.38;1.05;;;;;;;2.88;100.00;99510.66;5071082;28;20785;-68
2023/12/30 05:12:45;;;;;;;6.35;1.08;;;;;;;2.84;100.00;99510.19;5054713;28;20298;-67
2023/12/30 05:15:14;;;;;;;6.60;1.25;;;;;;;2.82;100.00;99502.41;5071444;28;20099;-68
2023/12/30 05:17:39;;;;;;;6.03;0.85;;;;;;;2.90;100.00;99503.34;5055874;28;20039;-67
2023/12/30 05:20:08;;;;;;;7.40;1.15;;;;;;;2.90;100.00;99506.00;5054604;28;20033;-68
2023/12/30 05:22:35;;;;;;;5.70;0.93;;;;;;;2.81;100.00;99508.75;5061546;28;20413;-67
2023/12/30 05:25:01;;;;;;;5.93;1.15;;;;;;;2.72;100.00;99499.19;5078393;28;20035;-66
2023/12/30 05:27:26;;;;;;;4.00;0.90;;;;;;;2.85;100.00;99527.81;5080119;28;20107;-67
2023/12/30 05:29:52;;;;;;;8.27;0.90;;;;;;;2.83;100.00;99527.97;5074479;28;20501;-67
2023/12/30 05:32:17;;;;;;;5.63;0.77;;;;;;;2.81;100.00;99523.81;5071330;28;20040;-67
2023/12/30 05:34:44;;;;;;;6.78;0.95;;;;;;;2.80;100.00;99528.31;5054426;28;20032;-67
2023/12/30 05:37:10;;;;;;;6.57;1.00;;;;;;;2.80;100.00;99530.97;5073332;28;20084;-67
2023/12/30 05:39:36;;;;;;;4.68;0.90;;;;;;;2.80;100.00;99536.28;5058167;28;20031;-67
2023/12/30 05:42:02;;;;;;;9.50;1.15;;;;;;;2.77;100.00;99536.66;5071373;28;20411;-68
2023/12/30 05:44:28;;;;;;;11.05;1.08;;;;;;;2.74;100.00;99531.69;5053917;28;20034;-69
2023/12/30 05:46:53;;;;;;;12.40;1.30;;;;;;;2.73;100.00;99537.19;5070532;28;20103;-67
2023/12/30 05:49:18;;;;;;;8.48;1.33;;;;;;;2.72;100.00;99539.03;5053582;28;20553;-70
2023/12/30 05:51:44;;;;;;;15.68;1.70;;;;;;;2.74;100.00;99537.00;5070174;28;20032;-68
2023/12/30 05:54:12;;;;;;;13.65;2.00;;;;;;;2.77;100.00;99547.28;5070219;28;20039;-67
2023/12/30 05:56:38;;;;;;;12.70;1.50;;;;;;;2.71;100.00;99531.22;5071755;28;20025;-68
2023/12/30 05:59:03;;;;;;;22.48;2.10;;;;;;;2.63;100.00;99524.16;5053366;28;20037;-67
2023/12/30 06:01:29;;;;;;;22.38;2.42;;;;;;;2.88;100.00;99555.81;5070417;28;20048;-67
2023/12/30 06:03:54;;;;;;;15.85;1.85;;;;;;;2.90;100.00;99562.59;5070357;28;20033;-70
2023/12/30 06:06:20;;;;;;;13.40;1.67;;;;;;;2.98;100.00;99565.22;5070425;28;20032;-68
2023/12/30 06:08:46;;;;;;;18.48;2.22;;;;;;;3.01;100.00;99569.31;5071430;28;20106;-68
2023/12/30 06:11:12;;;;;;;13.77;1.92;;;;;;;3.02;100.00;99565.66;5071293;28;20028;-67
2023/12/30 06:13:40;;;;;;;19.00;2.10;;;;;;;3.09;100.00;99573.75;5070439;28;20118;-67
2023/12/30 06:16:10;;;;;;;10.13;1.67;;;;;;;3.12;100.00;99570.72;5070215;28;20044;-67
2023/12/30 06:18:38;;;;;;;22.50;2.20;;;;;;;3.14;100.00;99576.66;5070895;28;20036;-67
2023/12/30 06:21:04;;;;;;;14.52;1.75;;;;;;;3.15;100.00;99571.19;5063770;28;20046;-67
2023/12/30 06:23:33;;;;;;;22.35;2.28;;;;;;;3.18;100.00;99585.91;5066842;28;20035;-67
2023/12/30 06:26:00;;;;;;;17.70;2.28;;;;;;;3.20;100.00;99590.06;5071221;28;20035;-68
2023/12/30 06:28:26;;;;;;;24.17;2.53;;;;;;;3.12;100.00;99574.22;5071493;28;20051;-67
2023/12/30 06:30:52;;;;;;;28.42;2.83;;;;;;;3.22;100.00;99596.03;5053325;28;20037;-67
2023/12/30 06:33:19;;;;;;;14.07;1.80;;;;;;;3.23;100.00;99597.69;5071424;28;20024;-67
2023/12/30 06:35:45;;;;;;;17.90;2.17;;;;;;;3.14;100.00;99582.81;5069885;28;20029;-68
2023/12/30 06:38:10;;;;;;;15.60;2.15;;;;;;;3.24;100.00;99596.66;5069519;28;20415;-67
2023/12/30 06:40:36;;;;;;;12.98;1.90;;;;;;;3.23;100.00;99603.00;5069449;28;20098;-67
2023/12/30 06:43:02;;;;;;;19.90;2.65;;;;;;;3.25;100.00;99614.28;5070448;28;20392;-67
2023/12/30 06:45:27;;;;;;;11.85;1.65;;;;;;;3.25;100.00;99614.28;5070856;28;20462;-68
2023/12/30 06:47:53;;;;;;;13.52;1.65;;;;;;;3.24;100.00;99607.28;5069223;28;20115;-67
2023/12/30 06:50:20;;;;;;;16.25;2.33;;;;;;;3.33;100.00;99616.03;5070597;28;20041;-68
2023/12/30 06:52:46;;;;;;;12.68;1.48;;;;;;;3.36;100.00;99623.63;5053292;28;20411;-67
2023/12/30 06:55:13;;;;;;;18.45;1.80;;;;;;;3.39;100.00;99630.44;5036241;28;20029;-67
2023/12/30 06:57:39;;;;;;;12.88;1.75;;;;;;;3.42;100.00;99630.91;5070833;28;20107;-67
2023/12/30 07:00:05;;;;;;;19.73;2.22;;;;;;;3.44;100.00;99642.16;5069399;28;20042;-67
2023/12/30 07:02:31;;;;;;;25.88;3.42;;;;;;;3.30;100.00;99611.88;5069664;28;20036;-67
2023/12/30 07:04:56;;;;;;;22.13;2.70;;;;;;;3.46;100.00;99640.16;5069674;28;20094;-68
2023/12/30 07:07:21;;;;;;;21.35;2.60;;;;;;;3.45;100.00;99638.50;5069706;28;20033;-68
2023/12/30 07:09:46;;;;;;;24.58;2.38;;;;;;;3.46;100.00;99644.66;5069792;28;20093;-67
2023/12/30 07:12:13;;;;;;;28.27;3.45;;;;;;;3.28;100.00;99623.72;5069855;28;20120;-68
2023/12/30 07:14:38;;;;;;;19.40;2.88;;;;;;;3.40;100.00;99640.06;5069815;28;20028;-69
2023/12/30 07:17:04;;;;;;;26.45;2.85;;;;;;;3.43;100.00;99653.81;5070634;28;20070;-68
2023/12/30 07:19:29;;;;;;;25.63;3.08;;;;;;;3.39;100.00;99667.66;5069771;28;20157;-68
2023/12/30 07:21:55;;;;;;;21.85;2.85;;;;;;;3.38;100.00;99671.31;5070749;28;20040;-67
2023/12/30 07:24:20;;;;;;;17.27;2.28;;;;;;;3.38;100.00;99673.97;5070497;28;20029;-68
2023/12/30 07:26:45;;;;;;;13.77;2.10;;;;;;;3.37;100.00;99680.31;5070486;28;20025;-67
2023/12/30 07:29:11;;;;;;;22.75;2.33;;;;;;;3.38;100.00;99685.44;5070274;28;20386;-67
2023/12/30 07:31:37;;;;;;;13.30;1.98;;;;;;;3.35;100.00;99682.34;5052277;28;20028;-67
2023/12/30 07:34:04;;;;;;;27.77;2.30;;;;;;;3.36;100.00;99689.28;5070919;28;20035;-67
2023/12/30 07:36:30;;;;;;;19.40;2.00;;;;;;;3.36;100.00;99694.59;5074355;28;20024;-68
2023/12/30 07:38:56;;;;;;;19.67;2.00;;;;;;;3.35;100.00;99692.97;5073970;28;20549;-68
2023/12/30 07:41:22;;;;;;;14.02;1.75;;;;;;;3.43;100.00;99706.19;5072952;28;20076;-68
2023/12/30 07:43:48;;;;;;;16.25;1.67;;;;;;;3.40;100.00;99711.84;5073936;28;20518;-67
2023/12/30 07:46:13;;;;;;;10.85;1.77;;;;;;;3.35;100.00;99695.63;5056508;28;20201;-67
2023/12/30 07:48:39;;;;;;;17.38;1.67;;;;;;;3.45;100.00;99710.31;5072829;28;20115;-68
2023/12/30 07:51:04;;;;;;;11.30;1.73;;;;;;;3.48;100.00;99717.13;5079437;28;20021;-68
2023/12/30 07:53:30;;;;;;;16.20;1.70;;;;;;;3.51;100.00;99714.09;5080404;28;20084;-67
2023/12/30 07:55:56;;;;;;;9.25;1.35;;;;;;;3.56;100.00;99719.69;5081238;28;20032;-67
2023/12/30 07:58:21;;;;;;;13.40;1.67;;;;;;;3.60;100.00;99736.94;5056815;28;20116;-67
2023/12/30 08:00:47;;;;;;;17.98;2.28;;;;;;;3.58;100.00;99728.31;5074225;28;20028;-67
2023/12/30 08:03:12;;;;;;;10.35;1.67;;;;;;;3.51;100.00;99738.84;5072904;28;20482;-67
2023/12/30 08:05:39;;;;;;;6.57;1.00;;;;;;;3.40;100.00;99739.25;5073000;28;20419;-67
2023/12/30 08:08:05;;;;;;;6.75;0.80;;;;;;;3.31;100.00;99743.00;5073709;28;20032;-67
2023/12/30 08:10:32;;;;;;;2.58;0.55;;;;;;;3.23;100.00;99759.00;5072594;28;20059;-68
2023/12/30 08:13:00;;;;;;;3.33;0.63;;;;;;;3.17;100.00;99755.22;5073755;28;20063;-68
2023/12/30 08:15:26;;;;;;;7.18;0.63;;;;;;;3.17;100.00;99744.59;5074034;28;20035;-68
2023/12/30 08:17:52;;;;;;;3.53;0.50;;;;;;;3.06;100.00;99739.69;5073846;28;20107;-68
2023/12/30 08:20:17;;;;;;;5.30;0.60;;;;;;;3.07;100.00;99749.31;5056452;28;20513;-70
2023/12/30 08:22:43;;;;;;;2.75;0.50;;;;;;;3.07;100.00;99746.66;5074124;28;20112;-70
2023/12/30 08:25:08;;;;;;;4.68;0.75;;;;;;;2.95;100.00;99729.47;5074544;28;20025;-67
2023/12/30 08:27:34;;;;;;;9.13;0.90;;;;;;;3.13;100.00;99756.59;5073640;28;20029;-66
2023/12/30 08:30:00;;;;;;;8.10;0.90;;;;;;;3.18;100.00;99767.53;5073259;28;20099;-67
2023/12/30 08:32:25;;;;;;;8.45;1.25;;;;;;;3.19;100.00;99774.50;5072098;28;20458;-67
2023/12/30 08:34:51;;;;;;;10.50;1.33;;;;;;;3.21;100.00;99783.13;5055294;28;20039;-67
2023/12/30 08:37:17;;;;;;;10.90;1.50;;;;;;;3.22;100.00;99774.13;5073624;28;20055;-71
2023/12/30 08:39:42;;;;;;;17.08;1.80;;;;;;;2.59;100.00;99679.56;5055032;28;20024;-67
2023/12/30 08:42:09;;;;;;;10.05;1.70;;;;;;;3.28;100.00;99789.38;5072917;28;20053;-67
2023/12/30 08:44:40;;;;;;;13.48;1.98;;;;;;;3.31;100.00;99785.53;5072190;28;20024;-68
2023/12/30 08:47:05;;;;;;;12.63;1.98;;;;;;;3.34;100.00;99782.50;5072766;28;20052;-68
2023/12/30 08:49:31;;;;;;;14.80;1.80;;;;;;;3.37;100.00;99789.31;5072987;28;20052;-67
2023/12/30 08:51:57;;;;;;;12.73;2.00;;;;;;;3.41;100.00;99795.94;5071373;28;20116;-67
2023/12/30 08:54:24;;;;;;;10.93;1.77;;;;;;;3.43;100.00;99797.41;5073101;28;20023;-68
2023/12/30 08:56:53;;;;;;;10.98;1.45;;;;;;;3.41;100.00;99799.44;5071774;28;20032;-68
2023/12/30 08:59:19;;;;;;;14.25;2.22;;;;;;;3.43;100.00;99805.38;5073151;28;20055;-67
2023/12/30 09:01:45;;;;;;;10.60;1.40;;;;;;;3.41;100.00;99798.59;5071791;28;20479;-67
2023/12/30 09:04:10;;;;;;;9.93;1.75;;;;;;;3.40;100.00;99808.41;5071729;28;20044;-68
2023/12/30 09:06:35;;;;;;;12.10;1.40;;;;;;;3.40;100.00;99812.91;5054827;28;20039;-67
2023/12/30 09:09:01;;;;;;;7.72;1.25;;;;;;;3.32;100.00;99805.81;5071562;28;20079;-66
2023/12/30 09:11:26;;;;;;;9.65;1.73;;;;;;;3.35;100.00;99826.72;5071571;28;20490;-67
2023/12/30 09:13:52;;;;;;;13.13;1.50;;;;;;;3.32;100.00;99820.94;5054839;28;20036;-67
2023/12/30 09:16:18;;;;;;;9.43;1.10;;;;;;;3.34;100.00;99834.88;5073355;28;20020;-67
2023/12/30 09:18:43;;;;;;;11.77;1.20;;;;;;;3.31;100.00;99836.03;5055026;28;20046;-67
2023/12/30 09:21:08;;;;;;;10.13;1.60;;;;;;;3.32;100.00;99839.56;5070876;28;20032;-67
2023/12/30 09:23:34;;;;;;;7.43;0.98;;;;;;;3.33;100.00;99847.34;5070931;28;20042;-68
2023/12/30 09:26:00;;;;;;;9.82;1.20;;;;;;;3.35;100.00;99855.97;5072127;28;20111;-67
2023/12/30 09:28:25;;;;;;;8.00;1.00;;;;;;;3.35;100.00;99852.50;5070434;28;20068;-67
2023/12/30 09:30:50;;;;;;;6.38;1.00;;;;;;;3.34;100.00;99849.00;5072207;28;20068;-67
2023/12/30 09:33:16;;;;;;;9.85;1.25;;;;;;;3.33;100.00;99850.00;5070850;28;20097;-68
2023/12/30 09:35:42;;;;;;;9.40;1.70;;;;;;;3.32;100.00;99847.53;5070401;28;20029;-67
2023/12/30 09:38:07;;;;;;;9.52;1.05;;;;;;;3.40;100.00;99863.41;5070367;28;20510;-70
2023/12/30 09:40:33;;;;;;;4.70;0.68;;;;;;;3.41;100.00;99873.03;5070641;28;20024;-67
2023/12/30 09:43:04;;;;;;;14.95;1.30;;;;;;;3.43;100.00;99871.88;5053677;28;20084;-67
2023/12/30 09:45:34;;;;;;;9.43;0.82;;;;;;;3.47;100.00;99873.16;5071858;28;20433;-68
2023/12/30 09:48:02;;;;;;;11.43;0.90;;;;;;;3.36;100.00;99857.63;5070302;28;20446;-67
2023/12/30 09:50:29;;;;;;;7.70;0.90;;;;;;;3.45;100.00;99863.75;5071758;28;20384;-67
2023/12/30 09:52:54;;;;;;;2.28;0.63;;;;;;;3.63;100.00;99887.38;5071662;28;20028;-67
2023/12/30 09:55:19;;;;;;;4.82;0.57;;;;;;;3.67;100.00;99884.19;5070640;28;20036;-67
2023/12/30 09:57:45;;;;;;;7.85;1.10;;;;;;;3.72;100.00;99895.13;5070352;28;20024;-67
2023/12/30 10:00:15;;;;;;;7.47;0.90;;;;;;;3.79;100.00;99902.41;5070656;28;20062;-67
2023/12/30 10:02:41;;;;;;;8.38;0.60;;;;;;;3.85;100.00;99899.03;5071837;28;20028;-67
2023/12/30 10:05:07;;;;;;;4.15;0.80;;;;;;;3.92;100.00;99905.31;5071924;28;20446;-67
2023/12/30 10:07:34;;;;;;;5.80;0.77;;;;;;;3.96;100.00;99910.09;5071774;28;20028;-67
2023/12/30 10:09:59;;;;;;;6.25;0.73;;;;;;;3.96;100.00;99910.09;5071545;28;20395;-67
2023/12/30 10:12:25;;;;;;;6.28;0.85;;;;;;;3.92;100.00;99898.16;5070532;28;20025;-67
2023/12/30 10:14:50;;;;;;;5.50;0.85;;;;;;;4.00;100.00;99915.88;5071258;28;20028;-66
2023/12/30 10:17:17;;;;;;;9.10;0.80;;;;;;;4.01;100.00;99917.56;5070268;28;20503;-67
2023/12/30 10:19:42;;;;;;;4.90;0.82;;;;;;;4.01;100.00;99912.22;5071367;28;20020;-67
2023/12/30 10:22:08;;;;;;;8.93;1.63;;;;;;;3.74;100.00;99873.66;5069724;28;20487;-68
2023/12/30 10:24:34;;;;;;;11.48;1.00;;;;;;;4.10;100.00;99920.97;5071576;28;20483;-67
2023/12/30 10:27:04;;;;;;;5.55;0.68;;;;;;;4.11;100.00;99928.78;5069758;28;20036;-68
2023/12/30 10:29:29;;;;;;;10.00;0.80;;;;;;;4.10;100.00;99929.78;5069569;28;20039;-67
2023/12/30 10:32:03;;;;;;;9.75;1.08;;;;;;;4.10;100.00;99932.44;5070889;28;20028;-68
2023/12/30 10:34:29;;;;;;;9.57;0.98;;;;;;;4.05;100.00;99934.00;5071005;28;20111;-67
2023/12/30 10:36:57;;;;;;;8.45;0.82;;;;;;;3.85;100.00;99899.03;5070684;28;20132;-67
2023/12/30 10:39:23;;;;;;;7.20;0.82;;;;;;;4.05;100.00;99932.16;5070697;28;20098;-67
2023/12/30 10:41:48;;;;;;;6.53;0.80;;;;;;;4.07;100.00;99935.44;5069667;28;20045;-68
2023/12/30 10:44:14;;;;;;;12.20;0.80;;;;;;;3.91;100.00;99903.66;5070701;28;20020;-68
2023/12/30 10:46:45;;;;;;;6.10;1.00;;;;;;;4.06;100.00;99940.97;5070826;28;20036;-67
2023/12/30 10:49:14;;;;;;;5.93;0.70;;;;;;;4.04;100.00;99948.28;5069384;28;20082;-68
2023/12/30 10:51:40;;;;;;;6.30;0.90;;;;;;;4.03;100.00;99951.97;5070572;28;20085;-68
2023/12/30 10:54:07;;;;;;;5.38;0.73;;;;;;;3.93;100.00;99947.69;5069403;28;20120;-67
2023/12/30 10:56:42;;;;;;;5.20;0.65;;;;;;;3.97;100.00;99943.69;5070708;28;20507;-67
2023/12/30 10:59:08;;;;;;;6.45;0.70;;;;;;;3.77;100.00;99931.84;5070959;28;20028;-68
2023/12/30 11:01:36;;;;;;;6.40;0.80;;;;;;;3.98;100.00;99971.97;5071134;28;20085;-68
2023/12/30 11:04:02;;;;;;;5.72;1.10;;;;;;;3.97;100.00;99970.31;5070893;28;20126;-67
2023/12/30 11:06:45;;;;;;;10.77;0.93;;;;;;;3.91;100.00;99959.56;5073322;28;20087;-67
2023/12/30 11:09:13;;;;;;;9.88;1.15;;;;;;;3.91;100.00;99956.88;5069146;28;20043;-68
2023/12/30 11:11:52;;;;;;;17.85;1.65;;;;;;;4.04;100.00;99970.44;5071396;28;20036;-67
2023/12/30 11:14:19;;;;;;;11.13;1.90;;;;;;;4.09;100.00;99968.06;5071004;28;20464;-67
2023/12/30 11:16:45;;;;;;;14.68;1.77;;;;;;;4.11;100.00;99970.56;5071056;28;20483;-67
2023/12/30 11:19:11;;;;;;;10.60;1.70;;;;;;;4.12;100.00;99966.88;5036135;28;20402;-67
2023/12/30 11:21:40;;;;;;;26.00;1.83;;;;;;;4.14;100.00;99970.19;5071035;28;20041;-66
2023/12/30 11:24:07;;;;;;;13.75;1.85;;;;;;;4.12;100.00;99975.69;5069380;28;20035;-68
2023/12/30 11:26:41;;;;;;;10.02;2.00;;;;;;;4.08;100.00;99977.06;5052599;28;20506;-68